CYRQYMML

Guest
Details From CYRQ - Trois Rivieres
To YMML - Melbourne Intl
Flight Number -
Tags Decoded
Created
Modified
Stats Distance 9,171 nm / 16,985 km
Max Altitude 0 ft / 0 m
Waypoints 4
Social Downloads 0
Likes 0
Share VATSIM

Download

Looking for another format? Having issues loading an existing format? Contact us
Advertisement - Login to hide

Notes

Decoded

Route

SOKYE PESAC YQB ML

ID Type Via Altitude Latitude Longitude Leg Dist Tot Dist Heading (true) Name
O SOKYE FIX - 0 ft / 0 m 46.35889˚ -72.85139˚ - 0 nm - -
PESAC FIX - 0 ft / 0 m 46.54889˚ -72.18694˚ 29 nm 29 nm 67° / 68° -
YQB VOR - 0 ft / 0 m 46.70533˚ -71.62656˚ 24 nm 54 nm 68° / 68° QUEBEC VORTAC
O ML VOR - 0 ft / 0 m -37.66000˚ 144.84194˚ 9116 nm 9171 nm 275° / 240° MELBOURNE VOR-DME

Altitude Profile

Advertisement - Login to hide

Weather


0- 5 10 15 20 25 30 35+ Temperature / ° C

Clouds and Precipitation
Forecast for 2017-12-17 12:00 UTC. Updated an hour ago

Ground ~20,000 ft ~40,000 ft Winds

CYRQ

Details ICAO CYRQ (YRQ)
Name TROIS RIVIERES
Region Canada
Timezone America/Montreal (UTC-5.0)
Stats Elevation 199 ft / 61 m (AMSL)
Location 46.352741° -72.679441°
Runways 1
Magnetic Variation 15.121° W

METAR

CYRQ 171200Z AUTO VRB02KT 9SM OVC047 M24/M27 A3031 RMK SLP273

Decode

TAF

TAF CYRQ 170741Z 1708/1720 VRB03KT P6SM SCT040 TEMPO 1708/1716 BKN040 FM171600 VRB03KT P6SM SKC RMK FCST BASED ON AUTO OBS. NXT FCST BY 171400Z

Decode

Departure Runways

ID Width Length Bearing (true) Bearing (mag) Surface Threshold Offset Overrun Length
05 150 ft / 46 m 6,001 ft / 1,829 m 31.33° 46.45° Asphalt 0 ft / 0 m 300 ft / 91 m
23 150 ft / 46 m 6,001 ft / 1,829 m 211.34° 226.46° Asphalt 0 ft / 0 m 300 ft / 91 m

YMML

Details ICAO YMML (MEL)
Name Melbourne Intl
Region Australia
Timezone Australia/Melbourne (UTC+11.0)
Stats Elevation 433 ft / 132 m (AMSL)
Location -37.665301° 144.836668°
Runways 2
Magnetic Variation 11.504° E

METAR

YMML 171200Z 27009KT CAVOK 18/15 Q1014 NOSIG

Decode

TAF

TAF YMML 171130Z 1712/1818 27006KT CAVOK FM171600 01005KT CAVOK FM180000 18008KT CAVOK FM181000 03007KT CAVOK

Decode

Destination Runways

ID Width Length Bearing (true) Bearing (mag) Surface Threshold Offset Overrun Length
09 148 ft / 45 m 7,494 ft / 2,284 m 94.01° 82.51° Asphalt 0 ft / 0 m 0 ft / 0 m
16 148 ft / 45 m 12,008 ft / 3,660 m 171.02° 159.52° Asphalt 98 ft / 30 m 0 ft / 0 m
27 148 ft / 45 m 7,494 ft / 2,284 m 274.00° 262.50° Asphalt 0 ft / 0 m 0 ft / 0 m
34 148 ft / 45 m 12,008 ft / 3,660 m 351.01° 339.51° Asphalt 98 ft / 30 m 0 ft / 0 m

Approach Navaids

Runway Type Ident Frequency Range Bearing (true) Bearing (mag) Slope Elevation
16 Localiser IMS 109.70 MHz 18 nm / 33 km 171.57° 160.07° - 433 ft / 132 m (AMSL)
16 Glidescope IMS 109.70 MHz 10 nm / 19 km 171.02° 159.51° 3.00° 433 ft / 132 m (AMSL)
27 Localiser IMW 109.30 MHz 18 nm / 33 km 274.13° 262.63° - 433 ft / 132 m (AMSL)
27 Glidescope IMW 109.30 MHz 10 nm / 19 km 274.00° 262.50° 3.00° 433 ft / 132 m (AMSL)